Aérodrome :
LOGIN :

S'inscrire | Disclaimer

   EN    FR    IT 

 










Légende :    VFR   VFR Marginal   IFR   IFR Intensif   IFR Très Intensif
Visi : 
Plafond : 
>= 8 km
>= 3000ft
5 à 8 km
1000 à 3000 ft
1500m à 5 km
500 à 1000 ft
800 à 1500m
200 à 500 ft
< 800m
< 200 ft
Symboles :   Orages  Brouillard  Fortes neiges  Fortes précipitations  Vent > 20 kt
SIGMETs :   Divers  Orages  Givrage  Turbulence  Onde Orograph.  Cendres Volcan.






- Altitude de l'aérodrome : 97 ft
- Code IATA : EBJ


EKEB - Esbjerg

DERNIER METAR :
  • 200850Z AUTO 13005KT 080V170 6000 -SHRA FEW004/// BKN005/// BKN035/// 12/11 Q1008

METARs EXPIRÉS :
  • 200820Z AUTO 14005KT 110V200 7000 BKN004/// BKN046/// 11/11 Q1008
  • 200750Z AUTO 14004KT 120V180 9999 FEW003/// BKN027/// BKN071/// 11/11 Q1007
  • 200720Z AUTO 14005KT 4500 BR FEW003/// BKN027/// 10/10 Q1007
  • 200650Z AUTO 12004KT 3300 BR SCT003/// SCT063/// 10/09 Q1007
  • 200620Z AUTO VRB02KT 9999 BKN003/// BKN018/// BKN020/// 10/10 Q1006
  • 200550Z AUTO 13004KT 100V170 4500 BR FEW014/// BKN024/// 11/10 Q1006

TAF TAF EKEB
Valide du 20 à 09h jusqu'au 20 à 18h UTC


200804Z 2009/2018 18006KT 9999 SCT020
TEMPO 2009/2018 FEW020CB



MET'MAP, la Météo Aéronautique d'un coup d'oeil ! - Copyright ORBIFLY Décembre 2007 - Disclaimer

ORBIFLY MET'MAP TEAM :

Programmation & Développement : Alexandra Zaïnal
Conception & Développement : Baudouin d'Aumeries
Co-Programmation & Développement : Marc-Olivier Méhu
Soutien technique & logistique : Manuel Goepfert

Contact : metmap@orbifly.com




SOURCES & CREDITS :

   NOAA